createdAt,value
2019-01-15T00:02:21.439Z,3.63
2019-01-15T00:04:49.714Z,3.63
2019-01-15T00:07:18.479Z,3.67
2019-01-15T00:09:46.846Z,4.90
2019-01-15T00:12:15.258Z,3.47
2019-01-15T00:14:43.615Z,3.17
2019-01-15T00:17:11.922Z,3.00
2019-01-15T00:19:40.195Z,2.97
2019-01-15T00:22:08.555Z,3.40
2019-01-15T00:24:36.860Z,3.53
2019-01-15T00:27:05.186Z,3.43
2019-01-15T00:29:33.834Z,3.13
2019-01-15T00:32:02.193Z,3.67
2019-01-15T00:34:30.552Z,2.70
2019-01-15T00:36:58.988Z,3.17
2019-01-15T00:39:27.439Z,2.93
2019-01-15T00:41:55.706Z,3.67
2019-01-15T00:44:23.987Z,3.20
2019-01-15T00:46:52.298Z,3.33
2019-01-15T00:49:20.650Z,3.63
2019-01-15T00:51:49.108Z,3.00
2019-01-15T00:54:17.463Z,3.23
2019-01-15T00:56:45.815Z,3.03
2019-01-15T00:59:14.093Z,2.77
2019-01-15T01:01:42.388Z,2.97
2019-01-15T01:04:10.667Z,2.70
2019-01-15T01:06:38.963Z,3.13
2019-01-15T01:09:09.453Z,4.30
2019-01-15T01:11:37.907Z,3.97
2019-01-15T01:14:06.598Z,3.20
2019-01-15T01:16:34.933Z,2.57
2019-01-15T01:19:03.434Z,2.90
2019-01-15T01:21:31.789Z,2.83
2019-01-15T01:24:00.159Z,3.17
2019-01-15T01:26:28.446Z,3.53
2019-01-15T01:28:56.801Z,3.27
2019-01-15T01:31:25.604Z,2.60
2019-01-15T01:33:53.879Z,2.67
2019-01-15T01:36:22.163Z,4.63
2019-01-15T01:38:50.462Z,3.03
2019-01-15T01:41:18.761Z,2.63
2019-01-15T01:43:47.124Z,3.00
2019-01-15T01:46:15.404Z,3.03
2019-01-15T01:48:43.692Z,3.10
2019-01-15T01:51:12.070Z,3.30
2019-01-15T01:53:40.355Z,3.30
2019-01-15T01:56:08.712Z,2.67
2019-01-15T01:58:37.317Z,2.60
2019-01-15T02:01:05.597Z,2.60
2019-01-15T02:03:33.953Z,3.03
2019-01-15T02:06:02.278Z,2.80
2019-01-15T02:08:30.620Z,3.40
2019-01-15T02:10:58.895Z,3.00
2019-01-15T02:13:27.397Z,3.97
2019-01-15T02:15:56.024Z,5.03
2019-01-15T02:18:24.292Z,2.77
2019-01-15T02:20:52.656Z,3.10
2019-01-15T02:23:20.934Z,2.70
2019-01-15T02:25:49.486Z,3.43
2019-01-15T02:28:17.880Z,3.87
2019-01-15T02:30:46.217Z,3.23
2019-01-15T02:33:14.509Z,3.63
2019-01-15T02:35:43.149Z,3.70
2019-01-15T02:38:11.439Z,4.00
2019-01-15T02:40:39.822Z,2.93
2019-01-15T02:43:08.179Z,3.30
2019-01-15T02:45:36.828Z,3.10
2019-01-15T02:48:05.115Z,3.20
2019-01-15T02:50:33.457Z,3.10
2019-01-15T02:53:01.762Z,2.90
2019-01-15T02:55:30.112Z,3.07
2019-01-15T02:57:58.387Z,3.07
2019-01-15T03:00:26.667Z,2.53
2019-01-15T03:02:55.006Z,2.73
2019-01-15T03:05:23.311Z,3.77
2019-01-15T03:07:51.581Z,2.93
2019-01-15T03:10:21.019Z,3.53
2019-01-15T03:12:55.894Z,2.37
2019-01-15T03:15:21.104Z,3.07
2019-01-15T03:17:49.447Z,2.60
2019-01-15T03:20:18.231Z,2.50
2019-01-15T03:22:46.585Z,2.93
2019-01-15T03:25:14.870Z,2.80
2019-01-15T03:27:43.255Z,2.53
2019-01-15T03:30:14.515Z,3.50
2019-01-15T03:32:42.909Z,3.27
2019-01-15T03:35:11.275Z,2.77
2019-01-15T03:37:39.619Z,5.10
2019-01-15T03:40:19.341Z,2.63
2019-01-15T03:42:47.620Z,3.13
2019-01-15T03:45:15.904Z,2.20
2019-01-15T03:47:44.268Z,2.63
2019-01-15T03:50:12.564Z,2.60
2019-01-15T03:52:40.936Z,2.77
2019-01-15T03:55:11.445Z,2.90
2019-01-15T03:57:39.722Z,1.23
2019-01-15T04:00:14.449Z,2.53
2019-01-15T04:02:42.727Z,3.70
2019-01-15T04:05:11.837Z,3.40
2019-01-15T04:07:40.840Z,2.60
2019-01-15T04:10:09.987Z,3.27
2019-01-15T04:12:38.268Z,2.73
2019-01-15T04:15:09.537Z,3.10
2019-01-15T04:17:37.887Z,3.30
2019-01-15T04:20:11.879Z,2.53
2019-01-15T04:22:40.157Z,3.27
2019-01-15T04:25:09.725Z,2.60
2019-01-15T04:27:38.109Z,2.93
2019-01-15T04:30:12.859Z,2.43
2019-01-15T04:32:41.300Z,3.30
2019-01-15T04:35:10.117Z,3.33
2019-01-15T04:37:38.502Z,3.77
2019-01-15T04:40:10.385Z,3.10
2019-01-15T04:42:38.833Z,3.60
2019-01-15T04:45:10.432Z,3.17
2019-01-15T04:47:38.774Z,2.50
2019-01-15T04:50:09.292Z,3.00
2019-01-15T04:52:38.458Z,3.23
2019-01-15T04:55:09.441Z,3.90
2019-01-15T04:57:37.790Z,3.03
2019-01-15T05:00:15.232Z,2.83
2019-01-15T05:02:43.883Z,2.60
2019-01-15T05:05:12.293Z,3.17
2019-01-15T05:07:40.711Z,3.90
2019-01-15T05:10:11.744Z,3.43
2019-01-15T05:12:40.156Z,3.70
2019-01-15T05:15:12.969Z,3.70
2019-01-15T05:17:41.670Z,3.20
2019-01-15T05:20:15.407Z,4.50
2019-01-15T05:22:43.710Z,3.37
2019-01-15T05:25:17.384Z,2.87
2019-01-15T05:27:45.740Z,2.60
2019-01-15T05:30:20.159Z,2.77
2019-01-15T05:32:48.555Z,2.77
2019-01-15T05:35:20.109Z,2.43
2019-01-15T05:37:48.638Z,3.07
2019-01-15T05:40:16.994Z,2.30
2019-01-15T05:42:45.850Z,2.27
2019-01-15T05:45:18.715Z,3.20
2019-01-15T05:47:47.673Z,2.93
2019-01-15T05:50:17.659Z,2.93
2019-01-15T05:52:45.961Z,2.73
2019-01-15T05:55:14.290Z,3.03
2019-01-15T05:57:42.567Z,3.20
2019-01-15T06:00:14.073Z,3.47
2019-01-15T06:02:42.345Z,3.10
2019-01-15T06:05:11.777Z,3.60
2019-01-15T06:07:40.123Z,3.23
2019-01-15T06:10:11.832Z,3.80
2019-01-15T06:12:40.190Z,3.83
2019-01-15T06:15:14.176Z,2.80
2019-01-15T06:17:42.536Z,2.70
2019-01-15T06:20:18.589Z,3.07
2019-01-15T06:22:46.930Z,2.80
2019-01-15T06:25:15.240Z,2.53
2019-01-15T06:27:43.508Z,2.47
2019-01-15T06:30:18.337Z,3.10
2019-01-15T06:32:46.726Z,3.87
2019-01-15T06:35:15.002Z,3.07
2019-01-15T06:37:43.543Z,3.33
2019-01-15T06:40:14.568Z,3.43
2019-01-15T06:42:42.925Z,4.20
2019-01-15T06:45:17.376Z,2.80
2019-01-15T06:47:45.772Z,2.90
2019-01-15T06:50:14.813Z,2.97
2019-01-15T06:52:43.821Z,2.80
2019-01-15T06:55:14.979Z,3.03
2019-01-15T06:57:43.268Z,2.60
2019-01-15T07:00:27.714Z,3.10
2019-01-15T07:02:56.023Z,3.47
2019-01-15T07:05:24.314Z,3.10
2019-01-15T07:07:52.764Z,3.17
2019-01-15T07:10:24.440Z,3.10
2019-01-15T07:12:52.715Z,2.77
2019-01-15T07:15:20.990Z,4.07
2019-01-15T07:17:49.275Z,2.67
2019-01-15T07:20:17.566Z,3.17
2019-01-15T07:22:45.907Z,2.70
2019-01-15T07:25:17.347Z,3.03
2019-01-15T07:27:45.963Z,2.97
2019-01-15T07:30:20.192Z,3.40
2019-01-15T07:32:48.496Z,3.03
2019-01-15T07:35:16.844Z,2.47
2019-01-15T07:37:45.124Z,4.07
2019-01-15T07:40:14.170Z,2.60
2019-01-15T07:42:42.720Z,2.93
2019-01-15T07:45:14.540Z,3.73
2019-01-15T07:47:42.855Z,3.47
2019-01-15T07:50:16.816Z,3.70
2019-01-15T07:52:45.461Z,2.40
2019-01-15T07:55:17.196Z,3.70
2019-01-15T07:57:45.531Z,3.57
2019-01-15T08:00:21.758Z,2.90
2019-01-15T08:02:51.635Z,2.80
2019-01-15T08:05:39.353Z,4.97
2019-01-15T08:08:07.859Z,3.50
2019-01-15T08:10:36.139Z,3.87
2019-01-15T08:13:04.463Z,3.50
2019-01-15T08:15:32.812Z,2.73
2019-01-15T08:18:01.159Z,2.43
2019-01-15T08:20:29.452Z,3.53
2019-01-15T08:22:57.711Z,3.00
2019-01-15T08:25:25.991Z,2.87
2019-01-15T08:27:54.274Z,3.03
2019-01-15T08:30:28.114Z,3.73
2019-01-15T08:32:56.394Z,3.03
2019-01-15T08:35:44.191Z,4.00
2019-01-15T08:38:12.468Z,3.67
2019-01-15T08:40:40.742Z,3.90
2019-01-15T08:43:09.014Z,4.23
2019-01-15T08:45:37.306Z,3.80
2019-01-15T08:48:10.262Z,3.20
2019-01-15T08:50:38.608Z,4.33
2019-01-15T08:53:06.873Z,3.67
2019-01-15T08:55:35.147Z,4.07
2019-01-15T08:58:03.422Z,3.53
2019-01-15T09:00:31.737Z,3.90
2019-01-15T09:03:00.483Z,4.30
2019-01-15T09:05:28.835Z,5.27
2019-01-15T09:07:57.192Z,5.13
2019-01-15T09:10:25.537Z,3.80
2019-01-15T09:12:53.827Z,4.03
2019-01-15T09:15:22.837Z,3.80
2019-01-15T09:17:51.202Z,3.60
2019-01-15T09:20:21.109Z,5.03
2019-01-15T09:22:49.825Z,4.13
2019-01-15T09:25:18.111Z,3.60
2019-01-15T09:27:46.388Z,4.87
2019-01-15T09:30:20.203Z,4.87
2019-01-15T09:32:48.575Z,4.60
2019-01-15T09:35:16.923Z,4.57
2019-01-15T09:37:46.872Z,3.73
2019-01-15T09:40:17.706Z,3.93
2019-01-15T09:42:46.001Z,5.47
2019-01-15T09:45:19.350Z,4.17
2019-01-15T09:48:01.117Z,3.70
2019-01-15T09:50:29.411Z,4.43
2019-01-15T09:52:58.138Z,4.13
2019-01-15T09:55:26.516Z,4.07
2019-01-15T09:57:54.785Z,5.40
2019-01-15T10:00:23.065Z,4.17
2019-01-15T10:02:51.380Z,3.57
2019-01-15T10:05:19.740Z,3.97
2019-01-15T10:07:48.085Z,4.37
2019-01-15T10:10:17.686Z,4.77
2019-01-15T10:12:45.976Z,4.80
2019-01-15T10:15:17.087Z,5.53
2019-01-15T10:17:45.395Z,5.50
2019-01-15T10:20:15.511Z,4.27
2019-01-15T10:22:43.873Z,5.20
2019-01-15T10:25:15.046Z,4.83
2019-01-15T10:27:47.989Z,3.83
2019-01-15T10:30:35.911Z,4.77
2019-01-15T10:33:10.194Z,4.70
2019-01-15T10:35:52.694Z,4.10
2019-01-15T10:38:22.501Z,4.57
2019-01-15T10:40:51.548Z,5.07
2019-01-15T10:43:19.940Z,4.87
2019-01-15T10:45:48.283Z,4.63
2019-01-15T10:48:16.558Z,3.30
2019-01-15T10:50:44.856Z,4.20
2019-01-15T10:53:13.211Z,4.70
2019-01-15T10:55:41.491Z,4.50
2019-01-15T10:58:09.836Z,4.40
2019-01-15T11:00:38.124Z,4.50
2019-01-15T11:03:06.450Z,5.00
2019-01-15T11:05:34.794Z,5.07
2019-01-15T11:08:03.076Z,5.43
2019-01-15T11:10:31.391Z,5.13
2019-01-15T11:12:59.687Z,4.27
2019-01-15T11:15:28.045Z,4.30
2019-01-15T11:17:56.403Z,4.53
2019-01-15T11:20:24.678Z,6.33
2019-01-15T11:22:53.000Z,3.50
2019-01-15T11:25:21.314Z,3.73
2019-01-15T11:27:49.604Z,4.03
2019-01-15T11:30:17.950Z,9.43
2019-01-15T11:32:46.336Z,4.33
2019-01-15T11:35:14.915Z,5.30
2019-01-15T11:37:43.236Z,4.37
2019-01-15T11:40:15.907Z,3.53
2019-01-15T11:42:44.236Z,4.13
2019-01-15T11:45:14.906Z,4.10
2019-01-15T11:47:43.341Z,4.43
2019-01-15T11:50:19.616Z,4.27
2019-01-15T11:52:47.900Z,3.43
2019-01-15T11:55:16.284Z,4.07
2019-01-15T11:57:44.587Z,3.93
2019-01-15T12:00:17.817Z,4.20
2019-01-15T12:02:47.738Z,3.93
2019-01-15T12:05:29.899Z,3.80
2019-01-15T12:08:08.315Z,4.70
2019-01-15T12:10:54.142Z,3.90
2019-01-15T12:13:24.077Z,4.30
2019-01-15T12:15:56.436Z,4.43
2019-01-15T12:18:26.472Z,4.20
2019-01-15T12:20:58.937Z,4.30
2019-01-15T12:23:43.812Z,4.10
2019-01-15T12:26:13.721Z,4.77
2019-01-15T12:28:43.640Z,4.50
2019-01-15T12:31:25.332Z,4.73
2019-01-15T12:34:10.008Z,5.20
2019-01-15T12:36:48.589Z,4.67
2019-01-15T12:39:21.080Z,4.43
2019-01-15T12:41:51.251Z,4.57
2019-01-15T12:44:21.158Z,4.47
2019-01-15T12:46:56.957Z,5.03
2019-01-15T12:49:26.866Z,3.93
2019-01-15T12:52:13.151Z,4.73
2019-01-15T12:54:57.982Z,5.17
2019-01-15T12:57:27.926Z,5.43
2019-01-15T13:00:07.242Z,5.40
2019-01-15T13:02:55.361Z,7.73
2019-01-15T13:05:25.277Z,5.73
2019-01-15T13:07:55.195Z,5.07
2019-01-15T13:10:31.479Z,5.07
2019-01-15T13:13:03.966Z,5.67
2019-01-15T13:15:51.561Z,5.47
2019-01-15T13:18:36.586Z,5.67
2019-01-15T13:21:18.498Z,7.03
2019-01-15T13:23:50.971Z,5.57
2019-01-15T13:26:32.786Z,5.97
2019-01-15T13:29:19.032Z,6.17
2019-01-15T13:31:48.982Z,6.80
2019-01-15T13:34:21.340Z,7.07
2019-01-15T13:36:53.895Z,7.77
2019-01-15T13:39:26.606Z,7.47
2019-01-15T13:41:59.181Z,6.67
2019-01-15T13:44:38.277Z,7.43
2019-01-15T13:47:10.789Z,6.90
2019-01-15T13:49:49.469Z,6.43
2019-01-15T13:52:22.469Z,7.27
2019-01-15T13:54:52.395Z,6.87
2019-01-15T13:57:24.981Z,7.13
2019-01-15T14:00:00.847Z,6.63
2019-01-15T14:02:39.750Z,6.77
2019-01-15T14:05:27.908Z,7.07
2019-01-15T14:08:06.737Z,8.23
2019-01-15T14:10:52.947Z,6.17
2019-01-15T14:13:28.679Z,6.53
2019-01-15T14:16:10.257Z,6.10
2019-01-15T14:18:40.197Z,7.63
2019-01-15T14:21:10.188Z,6.83
2019-01-15T14:23:43.027Z,6.73
2019-01-15T14:26:13.025Z,5.77
2019-01-15T14:28:55.174Z,6.73
2019-01-15T14:31:27.985Z,5.97
2019-01-15T14:34:06.863Z,6.50
2019-01-15T14:36:53.090Z,6.33
2019-01-15T14:39:41.191Z,6.47
2019-01-15T14:42:27.401Z,6.33
2019-01-15T14:45:06.504Z,6.10
2019-01-15T14:47:54.563Z,6.60
2019-01-15T14:50:33.201Z,6.40
2019-01-15T14:53:09.039Z,6.53
2019-01-15T14:55:38.986Z,8.13
2019-01-15T14:58:25.092Z,6.97
2019-01-15T15:01:06.714Z,7.77
2019-01-15T15:03:36.880Z,6.67
2019-01-15T15:06:09.677Z,6.40
2019-01-15T15:08:42.329Z,7.03
2019-01-15T15:11:15.314Z,6.63
2019-01-15T15:13:45.290Z,6.47
2019-01-15T15:16:15.211Z,8.17
2019-01-15T15:18:51.093Z,8.17
2019-01-15T15:21:37.081Z,8.63
2019-01-15T15:24:07.426Z,7.80
2019-01-15T15:26:42.905Z,8.43
2019-01-15T15:29:12.837Z,8.20
2019-01-15T15:31:42.741Z,8.43
2019-01-15T15:34:12.730Z,8.17
2019-01-15T15:36:42.683Z,8.40
2019-01-15T15:39:15.359Z,9.30
2019-01-15T15:42:03.430Z,8.17
2019-01-15T15:44:48.443Z,8.77
2019-01-15T15:47:34.444Z,8.33
2019-01-15T15:50:06.915Z,8.13
2019-01-15T15:52:53.152Z,8.70
2019-01-15T15:55:39.376Z,9.33
2019-01-15T15:58:21.634Z,9.30
2019-01-15T16:00:57.548Z,10.97
2019-01-15T16:03:27.507Z,11.00
2019-01-15T16:06:02.944Z,10.40
2019-01-15T16:08:32.866Z,10.53
2019-01-15T16:11:19.012Z,8.57
2019-01-15T16:14:05.401Z,9.10
2019-01-15T16:16:38.211Z,9.30
2019-01-15T16:19:14.299Z,10.30
2019-01-15T16:21:56.169Z,9.03
2019-01-15T16:24:42.122Z,9.77
2019-01-15T16:27:18.170Z,10.80
2019-01-15T16:30:00.342Z,10.07
2019-01-15T16:32:46.693Z,11.10
2019-01-15T16:35:32.867Z,10.73
2019-01-15T16:38:14.996Z,11.00
2019-01-15T16:40:45.594Z,12.70
2019-01-15T16:43:15.685Z,13.27
2019-01-15T16:45:45.611Z,12.67
2019-01-15T16:48:27.447Z,11.93
2019-01-15T16:51:00.353Z,11.53
2019-01-15T16:53:36.068Z,11.73
2019-01-15T16:56:06.071Z,12.30
2019-01-15T16:58:44.917Z,11.77
2019-01-15T17:01:30.823Z,11.70
2019-01-15T17:04:17.163Z,12.97
2019-01-15T17:06:47.257Z,12.50
2019-01-15T17:09:28.811Z,13.43
2019-01-15T17:12:04.372Z,12.70
2019-01-15T17:14:52.590Z,15.93
2019-01-15T17:17:25.163Z,13.70
2019-01-15T17:19:57.925Z,13.73
2019-01-15T17:22:33.881Z,12.97
2019-01-15T17:25:06.763Z,11.40
2019-01-15T17:27:42.848Z,10.97
2019-01-15T17:30:31.814Z,10.73
2019-01-15T17:33:01.793Z,10.90
2019-01-15T17:35:31.922Z,9.80
2019-01-15T17:38:07.640Z,10.67
2019-01-15T17:40:52.703Z,10.10
2019-01-15T17:43:22.668Z,11.33
2019-01-15T17:45:52.583Z,10.10
2019-01-15T17:48:27.994Z,10.93
2019-01-15T17:51:14.032Z,9.90
2019-01-15T17:53:43.966Z,9.90
2019-01-15T17:56:13.886Z,10.67
2019-01-15T17:58:55.556Z,10.10
2019-01-15T18:01:47.269Z,11.77
2019-01-15T18:04:15.438Z,9.77
2019-01-15T18:06:51.506Z,8.73
2019-01-15T18:09:27.235Z,7.30
2019-01-15T18:12:13.674Z,7.20
2019-01-15T18:15:00.221Z,6.87
2019-01-15T18:17:42.018Z,6.00
2019-01-15T18:20:17.773Z,5.30
2019-01-15T18:22:47.707Z,4.43
2019-01-15T18:25:20.082Z,4.10
2019-01-15T18:27:53.170Z,5.27
2019-01-15T18:30:35.221Z,5.00
2019-01-15T18:33:05.251Z,5.43
2019-01-15T18:35:47.042Z,5.70
2019-01-15T18:38:45.592Z,6.43
2019-01-15T18:41:24.273Z,6.93
2019-01-15T18:44:10.514Z,7.53
2019-01-15T18:46:55.660Z,10.43
2019-01-15T18:49:20.944Z,12.20
2019-01-15T18:52:07.041Z,15.67
2019-01-15T18:54:42.829Z,16.67
2019-01-15T18:57:29.127Z,16.63
2019-01-15T18:59:59.047Z,15.07
2019-01-15T19:02:31.879Z,21.90
2019-01-15T19:05:21.332Z,18.73
2019-01-15T19:07:51.247Z,19.73
2019-01-15T19:10:37.308Z,19.80
2019-01-15T19:13:09.914Z,22.13
2019-01-15T19:15:55.810Z,19.30
2019-01-15T19:18:25.808Z,17.43
2019-01-15T19:21:21.132Z,17.83
2019-01-15T19:23:51.152Z,17.40
2019-01-15T19:26:24.044Z,18.70
2019-01-15T19:29:08.927Z,16.23
2019-01-15T19:31:44.814Z,14.43
2019-01-15T19:34:26.718Z,14.07
2019-01-15T19:37:02.241Z,11.97
2019-01-15T19:39:37.837Z,10.07
2019-01-15T19:42:19.747Z,11.03
2019-01-15T19:44:55.713Z,11.47
2019-01-15T19:47:41.827Z,12.57
2019-01-15T19:50:12.767Z,13.50
2019-01-15T19:52:45.648Z,13.43
2019-01-15T19:55:25.203Z,12.37
2019-01-15T19:57:58.021Z,13.10
2019-01-15T20:00:33.324Z,13.40
2019-01-15T20:03:09.007Z,10.03
2019-01-15T20:05:41.573Z,10.23
2019-01-15T20:08:11.610Z,9.43
2019-01-15T20:10:44.427Z,10.47
2019-01-15T20:13:14.410Z,12.27
2019-01-15T20:16:00.408Z,11.43
2019-01-15T20:18:46.788Z,9.63
2019-01-15T20:21:34.653Z,10.37
2019-01-15T20:24:16.469Z,11.40
2019-01-15T20:26:49.101Z,10.13
2019-01-15T20:29:28.240Z,10.37
2019-01-15T20:32:01.033Z,11.43
2019-01-15T20:34:47.339Z,10.03
2019-01-15T20:37:33.430Z,9.80
2019-01-15T20:40:15.239Z,8.87
2019-01-15T20:42:45.142Z,8.67
2019-01-15T20:45:30.276Z,10.60
2019-01-15T20:48:16.534Z,9.27
2019-01-15T20:50:49.425Z,11.37
2019-01-15T20:53:19.351Z,10.90
2019-01-15T20:56:07.562Z,10.47
2019-01-15T20:58:37.560Z,11.30
2019-01-15T21:01:13.175Z,11.50
2019-01-15T21:03:43.207Z,10.73
2019-01-15T21:06:13.201Z,12.13
2019-01-15T21:08:59.380Z,11.30
2019-01-15T21:11:45.634Z,17.13
2019-01-15T21:14:18.342Z,13.90
2019-01-15T21:16:54.346Z,11.63
2019-01-15T21:19:40.315Z,11.07
2019-01-15T21:22:16.217Z,12.43
2019-01-15T21:24:46.271Z,12.40
2019-01-15T21:27:32.450Z,11.17
2019-01-15T21:30:08.471Z,13.47
2019-01-15T21:32:54.221Z,10.93
2019-01-15T21:35:33.108Z,11.30
2019-01-15T21:38:14.979Z,10.00
2019-01-15T21:40:47.938Z,8.53
2019-01-15T21:43:26.915Z,7.87
2019-01-15T21:46:08.814Z,8.47
2019-01-15T21:48:47.607Z,7.43
2019-01-15T21:51:29.707Z,7.23
2019-01-15T21:54:16.062Z,7.47
2019-01-15T21:57:05.387Z,7.93
2019-01-15T21:59:44.416Z,7.23
2019-01-15T22:02:16.737Z,7.60
2019-01-15T22:05:03.176Z,7.67
2019-01-15T22:07:39.277Z,6.90
2019-01-15T22:10:19.401Z,7.57
2019-01-15T22:12:49.319Z,7.30
2019-01-15T22:15:31.143Z,7.13
2019-01-15T22:18:03.835Z,6.13
2019-01-15T22:20:39.889Z,7.37
2019-01-15T22:23:10.170Z,6.60
2019-01-15T22:25:40.169Z,7.27
2019-01-15T22:28:19.256Z,6.50
2019-01-15T22:31:05.637Z,7.20
2019-01-15T22:33:38.256Z,6.07
2019-01-15T22:36:24.600Z,7.63
2019-01-15T22:39:12.935Z,6.67
2019-01-15T22:41:42.955Z,7.03
2019-01-15T22:44:15.707Z,6.27
2019-01-15T22:46:45.662Z,7.00
2019-01-15T22:49:21.807Z,5.77
2019-01-15T22:51:57.827Z,6.80
2019-01-15T22:54:27.752Z,5.53
2019-01-15T22:57:09.907Z,6.47
2019-01-15T22:59:42.625Z,5.67
2019-01-15T23:02:27.682Z,6.40
2019-01-15T23:05:09.164Z,6.30
2019-01-15T23:07:39.079Z,6.73
2019-01-15T23:10:11.293Z,6.53
2019-01-15T23:12:43.792Z,8.00
2019-01-15T23:15:13.700Z,6.60
2019-01-15T23:17:52.528Z,6.77
2019-01-15T23:20:28.091Z,6.60
2019-01-15T23:22:58.039Z,6.27
2019-01-15T23:25:30.727Z,7.60
2019-01-15T23:28:16.770Z,5.60
2019-01-15T23:31:02.672Z,7.30
2019-01-15T23:33:32.684Z,6.50
2019-01-15T23:36:02.604Z,6.47
2019-01-15T23:38:35.350Z,6.73
2019-01-15T23:41:21.768Z,6.97
2019-01-15T23:44:03.725Z,6.60
2019-01-15T23:46:42.855Z,6.80
2019-01-15T23:49:30.748Z,8.20
2019-01-15T23:52:17.139Z,9.27
2019-01-15T23:55:03.582Z,7.27
2019-01-15T23:57:39.290Z,7.27
